createdAt,value
2023-03-29T00:02:04.628Z,8.50
2023-03-29T00:04:53.527Z,10.60
2023-03-29T00:07:39.572Z,6.30
2023-03-29T00:10:26.539Z,9.10
2023-03-29T00:13:13.012Z,9.00
2023-03-29T00:15:59.508Z,10.50
2023-03-29T00:18:45.954Z,11.20
2023-03-29T00:21:32.517Z,8.00
2023-03-29T00:24:18.952Z,13.60
2023-03-29T00:27:05.591Z,14.60
2023-03-29T00:29:52.159Z,12.70
2023-03-29T00:32:39.325Z,10.30
2023-03-29T00:35:25.686Z,9.50
2023-03-29T00:38:13.150Z,7.70
2023-03-29T00:40:59.948Z,11.80
2023-03-29T00:44:01.724Z,13.30
2023-03-29T00:46:48.562Z,16.50
2023-03-29T00:49:35.992Z,13.50
2023-03-29T00:52:22.805Z,18.90
2023-03-29T00:55:19.198Z,18.80
2023-03-29T00:58:10.067Z,20.00
2023-03-29T01:01:02.176Z,17.40
2023-03-29T01:03:55.240Z,24.70
2023-03-29T01:06:43.806Z,23.00
2023-03-29T01:09:35.222Z,21.90
2023-03-29T01:12:32.800Z,16.80
2023-03-29T01:15:27.196Z,20.50
2023-03-29T01:18:14.378Z,20.70
2023-03-29T01:21:27.890Z,23.20
2023-03-29T01:24:32.963Z,20.00
2023-03-29T01:27:44.189Z,18.50
2023-03-29T01:30:41.057Z,9.80
2023-03-29T01:33:33.524Z,12.10
2023-03-29T01:36:31.349Z,15.60
2023-03-29T01:39:19.025Z,17.40
2023-03-29T01:42:29.950Z,16.80
2023-03-29T01:46:01.934Z,15.20
2023-03-29T01:48:56.906Z,20.80
2023-03-29T01:52:08.172Z,24.80
2023-03-29T01:55:18.453Z,13.40
2023-03-29T01:58:08.455Z,17.90
2023-03-29T02:00:55.499Z,7.40
2023-03-29T02:03:47.285Z,12.10
2023-03-29T02:06:36.179Z,11.30
2023-03-29T02:09:23.496Z,8.40
2023-03-29T02:12:12.668Z,10.80
2023-03-29T02:15:00.910Z,7.00
2023-03-29T02:17:49.504Z,24.90
2023-03-29T02:20:40.668Z,21.30
2023-03-29T02:23:36.208Z,12.80
2023-03-29T02:26:24.015Z,11.20
2023-03-29T02:29:11.096Z,10.10
2023-03-29T02:32:09.919Z,9.40
2023-03-29T02:35:07.275Z,3.60
2023-03-29T02:37:57.447Z,6.70
2023-03-29T02:40:45.518Z,5.60
2023-03-29T02:43:34.659Z,3.10
2023-03-29T02:46:21.584Z,7.50
2023-03-29T02:49:10.306Z,13.80
2023-03-29T02:52:04.260Z,15.50
2023-03-29T02:54:54.519Z,13.80
2023-03-29T03:00:29.955Z,11.10
2023-03-29T03:03:17.070Z,10.70
2023-03-29T03:06:07.062Z,7.60
2023-03-29T03:08:53.893Z,6.40
2023-03-29T03:11:40.416Z,10.60
2023-03-29T03:14:28.340Z,9.50
2023-03-29T03:17:18.787Z,9.70
2023-03-29T03:20:13.235Z,9.70
2023-03-29T03:23:01.278Z,10.90
2023-03-29T03:25:49.246Z,10.40
2023-03-29T03:28:35.691Z,9.20
2023-03-29T03:31:23.992Z,12.20
2023-03-29T03:34:31.309Z,17.70
2023-03-29T03:37:20.076Z,15.00
2023-03-29T03:40:08.961Z,14.00
2023-03-29T03:42:55.504Z,13.00
2023-03-29T03:45:42.945Z,5.60
2023-03-29T03:48:34.094Z,9.50
2023-03-29T03:51:27.909Z,11.10
2023-03-29T03:54:14.289Z,15.10
2023-03-29T03:57:26.790Z,12.30
2023-03-29T04:00:20.481Z,3.40
2023-03-29T04:03:12.281Z,12.00
2023-03-29T04:06:02.229Z,9.30
2023-03-29T04:08:53.926Z,18.70
2023-03-29T04:11:56.909Z,21.20
2023-03-29T04:14:43.408Z,17.70
2023-03-29T04:17:36.489Z,16.50
2023-03-29T04:20:39.726Z,18.50
2023-03-29T04:23:26.594Z,28.20
2023-03-29T04:26:15.900Z,20.70
2023-03-29T04:29:08.461Z,22.10
2023-03-29T04:32:00.832Z,19.70
2023-03-29T04:35:01.662Z,20.00
2023-03-29T04:37:48.315Z,17.40
2023-03-29T04:40:35.779Z,15.50
2023-03-29T04:43:31.277Z,15.60
2023-03-29T04:46:40.372Z,16.40
2023-03-29T04:49:51.752Z,24.40
2023-03-29T04:52:51.447Z,26.50
2023-03-29T04:55:38.312Z,22.20
2023-03-29T04:58:32.192Z,20.00
2023-03-29T05:01:19.700Z,20.60
2023-03-29T05:04:15.331Z,20.00
2023-03-29T05:07:13.221Z,19.50
2023-03-29T05:10:00.216Z,18.90
2023-03-29T05:12:47.356Z,16.60
2023-03-29T05:15:33.782Z,16.70
2023-03-29T05:18:20.210Z,18.70
2023-03-29T05:21:07.670Z,18.20
2023-03-29T05:23:55.265Z,19.50
2023-03-29T05:27:08.261Z,18.20
2023-03-29T05:29:56.223Z,15.90
2023-03-29T05:32:48.005Z,20.10
2023-03-29T05:35:36.191Z,18.80
2023-03-29T05:38:24.127Z,16.40
2023-03-29T05:41:11.484Z,19.30
2023-03-29T05:44:17.084Z,18.20
2023-03-29T05:47:04.379Z,17.10
2023-03-29T05:49:51.518Z,15.50
2023-03-29T05:52:43.495Z,16.90
2023-03-29T05:55:29.822Z,14.40
2023-03-29T05:58:18.048Z,12.90
2023-03-29T06:01:10.536Z,20.20
2023-03-29T06:04:14.388Z,19.70
2023-03-29T06:07:08.612Z,16.40
2023-03-29T06:09:55.557Z,17.70
2023-03-29T06:12:42.755Z,17.80
2023-03-29T06:15:29.930Z,16.50
2023-03-29T06:18:23.383Z,15.70
2023-03-29T06:21:10.730Z,15.30
2023-03-29T06:23:57.821Z,13.40
2023-03-29T06:26:45.213Z,13.10
2023-03-29T06:29:32.037Z,12.20
2023-03-29T06:32:18.647Z,12.50
2023-03-29T06:35:18.718Z,12.30
2023-03-29T06:38:11.964Z,13.70
2023-03-29T06:41:16.882Z,11.40
2023-03-29T06:44:29.857Z,12.40
2023-03-29T06:47:30.910Z,14.10
2023-03-29T06:50:18.806Z,8.60
2023-03-29T06:53:13.613Z,9.10
2023-03-29T06:56:05.300Z,9.50
2023-03-29T06:59:03.454Z,6.00
2023-03-29T07:02:02.850Z,4.70
2023-03-29T07:05:16.300Z,5.70
2023-03-29T07:08:06.114Z,5.40
2023-03-29T07:11:04.010Z,3.70
2023-03-29T07:13:57.007Z,4.00
2023-03-29T07:16:47.223Z,5.00
2023-03-29T07:19:38.360Z,5.60
2023-03-29T07:22:33.004Z,5.20
2023-03-29T07:25:22.508Z,5.20
2023-03-29T07:28:09.479Z,4.50
2023-03-29T07:31:11.314Z,4.90
2023-03-29T07:34:05.627Z,5.70
2023-03-29T07:36:52.251Z,5.90
2023-03-29T07:39:38.690Z,5.70
2023-03-29T07:42:48.749Z,3.40
2023-03-29T07:45:37.885Z,3.70
2023-03-29T07:48:29.855Z,4.80
2023-03-29T07:51:19.125Z,5.90
2023-03-29T07:54:08.420Z,5.10
2023-03-29T07:56:55.429Z,4.50
2023-03-29T07:59:51.839Z,4.20
2023-03-29T08:02:46.707Z,5.10
2023-03-29T08:05:40.672Z,4.10
2023-03-29T08:08:34.808Z,3.70
2023-03-29T08:14:24.510Z,3.50
2023-03-29T08:17:16.851Z,4.30
2023-03-29T08:20:10.780Z,5.60
2023-03-29T08:22:58.735Z,4.30
2023-03-29T08:26:09.396Z,3.50
2023-03-29T08:28:56.840Z,5.10
2023-03-29T08:31:43.891Z,4.90
2023-03-29T08:34:31.849Z,5.40
2023-03-29T08:37:37.856Z,4.40
2023-03-29T08:40:28.174Z,4.40
2023-03-29T08:44:07.247Z,5.10
2023-03-29T08:47:25.360Z,4.50
2023-03-29T08:50:13.870Z,3.90
2023-03-29T08:56:34.019Z,4.30
2023-03-29T08:59:41.689Z,3.60
2023-03-29T09:02:32.587Z,4.20
2023-03-29T09:05:27.444Z,4.10
2023-03-29T09:08:40.188Z,3.40
2023-03-29T09:11:45.159Z,3.30
2023-03-29T09:14:55.858Z,4.30
2023-03-29T09:17:58.380Z,4.10
2023-03-29T09:20:52.610Z,3.60
2023-03-29T09:24:15.823Z,3.00
2023-03-29T09:27:26.558Z,3.90
2023-03-29T09:30:41.526Z,4.50
2023-03-29T09:33:42.817Z,3.30
2023-03-29T09:36:56.641Z,3.60
2023-03-29T09:39:43.850Z,3.60
2023-03-29T09:42:32.610Z,3.90
2023-03-29T09:45:19.630Z,3.00
2023-03-29T09:48:17.741Z,3.10
2023-03-29T09:51:11.427Z,2.90
2023-03-29T09:54:00.234Z,3.90
2023-03-29T09:57:20.334Z,2.70
2023-03-29T10:00:10.634Z,3.70
2023-03-29T10:03:07.456Z,3.90
2023-03-29T10:06:06.920Z,4.10
2023-03-29T10:08:59.078Z,4.40
2023-03-29T10:11:55.239Z,4.20
2023-03-29T10:14:48.137Z,3.60
2023-03-29T10:17:40.975Z,3.70
2023-03-29T10:20:28.246Z,3.90
2023-03-29T10:23:18.550Z,4.10
2023-03-29T10:26:10.277Z,3.20
2023-03-29T10:29:00.320Z,4.10
2023-03-29T10:31:46.673Z,3.70
2023-03-29T10:34:33.897Z,2.90
2023-03-29T10:37:21.296Z,3.50
2023-03-29T10:40:19.674Z,3.20
2023-03-29T10:43:24.654Z,3.10
2023-03-29T10:46:22.195Z,2.60
2023-03-29T10:49:20.719Z,3.00
2023-03-29T10:52:08.284Z,2.10
2023-03-29T10:54:56.632Z,3.70
2023-03-29T10:57:50.475Z,2.90
2023-03-29T11:00:52.341Z,3.20
2023-03-29T11:03:54.745Z,5.70
2023-03-29T11:06:52.634Z,5.90
2023-03-29T11:09:59.310Z,4.20
2023-03-29T11:12:56.082Z,4.40
2023-03-29T11:16:11.030Z,7.20
2023-03-29T11:19:15.452Z,4.50
2023-03-29T11:22:19.729Z,5.00
2023-03-29T11:25:20.614Z,5.60
2023-03-29T11:28:49.265Z,4.10
2023-03-29T11:31:54.174Z,4.40
2023-03-29T11:35:03.262Z,4.80
2023-03-29T11:41:00.905Z,3.50
2023-03-29T11:43:54.233Z,3.10
2023-03-29T11:46:48.125Z,3.10
2023-03-29T11:49:49.376Z,2.80
2023-03-29T11:53:01.407Z,2.90
2023-03-29T11:55:51.396Z,4.50
2023-03-29T11:58:42.534Z,2.70
2023-03-29T12:01:38.574Z,4.10
2023-03-29T12:04:32.660Z,4.00
2023-03-29T12:07:28.291Z,5.00
2023-03-29T12:10:17.302Z,3.90
2023-03-29T12:13:12.052Z,3.30
2023-03-29T12:16:05.705Z,4.30
2023-03-29T12:18:57.300Z,4.90
2023-03-29T12:21:46.770Z,4.90
2023-03-29T12:24:38.750Z,2.90
2023-03-29T12:27:59.656Z,4.90
2023-03-29T12:31:06.443Z,4.70
2023-03-29T12:34:01.966Z,4.10
2023-03-29T12:37:27.027Z,3.20
2023-03-29T12:40:45.702Z,3.60
2023-03-29T12:43:51.514Z,3.00
2023-03-29T12:47:00.659Z,3.40
2023-03-29T12:49:47.704Z,3.50
2023-03-29T12:52:36.265Z,4.30
2023-03-29T12:55:32.369Z,3.40
2023-03-29T13:01:32.110Z,3.00
2023-03-29T13:04:42.328Z,3.50
2023-03-29T13:07:32.988Z,3.20
2023-03-29T13:10:42.084Z,3.70
2023-03-29T13:13:33.846Z,4.20
2023-03-29T13:16:30.319Z,3.80
2023-03-29T13:19:32.481Z,5.20
2023-03-29T13:22:31.324Z,4.40
2023-03-29T13:25:47.004Z,6.30
2023-03-29T13:29:04.746Z,4.80
2023-03-29T13:31:56.981Z,4.60
2023-03-29T13:35:06.367Z,4.80
2023-03-29T13:38:20.770Z,4.90
2023-03-29T13:41:39.520Z,17.60
2023-03-29T13:44:33.883Z,5.10
2023-03-29T13:47:32.637Z,12.60
2023-03-29T13:50:33.582Z,13.10
2023-03-29T13:53:29.271Z,19.70
2023-03-29T13:56:22.415Z,22.20
2023-03-29T13:59:19.158Z,9.90
2023-03-29T14:02:06.656Z,13.70
2023-03-29T14:04:54.075Z,20.00
2023-03-29T14:07:46.545Z,27.50
2023-03-29T14:10:42.429Z,8.40
2023-03-29T14:13:30.153Z,11.60
2023-03-29T14:16:16.591Z,7.70
2023-03-29T14:19:06.182Z,15.70
2023-03-29T14:21:53.267Z,7.10
2023-03-29T14:24:48.060Z,4.90
2023-03-29T14:27:37.190Z,4.80
2023-03-29T14:30:27.962Z,6.20
2023-03-29T14:33:14.686Z,5.60
2023-03-29T14:36:06.359Z,5.10
2023-03-29T14:39:06.412Z,4.80
2023-03-29T14:41:55.411Z,4.40
2023-03-29T14:44:43.393Z,4.80
2023-03-29T14:47:32.987Z,7.40
2023-03-29T14:50:25.293Z,6.50
2023-03-29T14:53:24.298Z,5.20
2023-03-29T14:56:14.583Z,4.30
2023-03-29T14:59:03.598Z,4.00
2023-03-29T15:01:50.352Z,4.40
2023-03-29T15:04:37.485Z,8.10
2023-03-29T15:07:27.230Z,5.40
2023-03-29T15:10:23.088Z,4.50
2023-03-29T15:13:17.558Z,5.80
2023-03-29T15:16:08.117Z,5.60
2023-03-29T15:18:54.733Z,6.00
2023-03-29T15:21:41.258Z,7.50
2023-03-29T15:24:29.275Z,5.40
2023-03-29T15:27:18.295Z,4.40
2023-03-29T15:30:14.011Z,9.90
2023-03-29T15:33:39.987Z,10.10
2023-03-29T15:36:27.254Z,7.20
2023-03-29T15:39:17.144Z,5.40
2023-03-29T15:42:04.184Z,6.10
2023-03-29T15:44:54.806Z,6.90
2023-03-29T15:47:41.320Z,9.20
2023-03-29T15:50:28.062Z,5.20
2023-03-29T15:53:17.169Z,7.20
2023-03-29T15:56:07.495Z,21.90
2023-03-29T15:58:54.419Z,21.20
2023-03-29T16:01:41.935Z,22.40
2023-03-29T16:04:28.830Z,59.50
2023-03-29T16:07:17.536Z,16.90
2023-03-29T16:10:04.107Z,13.10
2023-03-29T16:12:50.797Z,29.80
2023-03-29T16:15:37.808Z,22.70
2023-03-29T16:18:24.515Z,11.50
2023-03-29T16:21:16.348Z,14.80
2023-03-29T16:24:03.926Z,16.90
2023-03-29T16:26:54.000Z,29.90
2023-03-29T16:29:42.082Z,31.10
2023-03-29T16:32:28.757Z,25.60
2023-03-29T16:35:29.102Z,12.20
2023-03-29T16:38:15.558Z,28.30
2023-03-29T16:41:02.644Z,11.60
2023-03-29T16:43:49.376Z,6.70
2023-03-29T16:46:35.839Z,5.40
2023-03-29T16:49:22.449Z,9.10
2023-03-29T16:52:09.162Z,7.80
2023-03-29T16:54:55.425Z,6.40
2023-03-29T16:57:42.626Z,6.50
2023-03-29T17:00:29.529Z,9.70
2023-03-29T17:03:16.964Z,11.00
2023-03-29T17:06:05.643Z,13.00
2023-03-29T17:08:53.841Z,14.30
2023-03-29T17:11:41.481Z,11.20
2023-03-29T17:14:28.697Z,12.20
2023-03-29T17:17:16.101Z,14.10
2023-03-29T17:20:02.650Z,19.80
2023-03-29T17:22:52.203Z,11.10
2023-03-29T17:25:38.745Z,11.00
2023-03-29T17:28:25.309Z,9.80
2023-03-29T17:31:12.134Z,8.90
2023-03-29T17:33:58.540Z,10.30
2023-03-29T17:36:45.982Z,11.10
2023-03-29T17:39:37.564Z,12.10
2023-03-29T17:42:24.145Z,14.00
2023-03-29T17:45:11.278Z,12.50
2023-03-29T17:47:58.274Z,10.80
2023-03-29T17:50:44.730Z,8.50
2023-03-29T17:53:31.231Z,6.80
2023-03-29T17:56:20.300Z,7.30
2023-03-29T17:59:06.665Z,11.00
2023-03-29T18:01:53.425Z,9.80
2023-03-29T18:04:39.656Z,13.70
2023-03-29T18:07:26.168Z,10.40
2023-03-29T18:10:12.605Z,10.50
2023-03-29T18:13:00.115Z,7.10
2023-03-29T18:15:47.580Z,9.50
2023-03-29T18:18:34.966Z,8.80
2023-03-29T18:21:22.123Z,8.90
2023-03-29T18:24:08.504Z,9.50
2023-03-29T18:26:55.163Z,11.50
2023-03-29T18:29:41.496Z,13.90
2023-03-29T18:32:28.310Z,15.70
2023-03-29T18:35:15.124Z,13.70
2023-03-29T18:38:03.345Z,10.00
2023-03-29T18:40:50.608Z,5.40
2023-03-29T18:43:38.798Z,9.00
2023-03-29T18:46:25.882Z,10.20
2023-03-29T18:49:13.234Z,13.30
2023-03-29T18:51:59.859Z,12.70
2023-03-29T18:54:46.495Z,14.10
2023-03-29T18:57:33.089Z,9.00
2023-03-29T19:00:20.011Z,11.70
2023-03-29T19:03:07.629Z,11.50
2023-03-29T19:05:55.799Z,11.00
2023-03-29T19:08:42.671Z,9.40
2023-03-29T19:11:30.040Z,9.60
2023-03-29T19:14:23.323Z,8.90
2023-03-29T19:17:09.809Z,10.40
2023-03-29T19:19:56.848Z,10.00
2023-03-29T19:22:43.172Z,10.30
2023-03-29T19:25:33.021Z,9.20
2023-03-29T19:28:19.503Z,8.50
2023-03-29T19:31:05.762Z,9.20
2023-03-29T19:33:52.201Z,7.20
2023-03-29T19:36:39.290Z,9.70
2023-03-29T19:39:27.960Z,9.20
2023-03-29T19:42:15.015Z,11.10
2023-03-29T19:45:02.478Z,9.30
2023-03-29T19:47:57.737Z,8.60
2023-03-29T19:50:45.672Z,10.30
2023-03-29T19:53:32.916Z,10.50
2023-03-29T19:56:19.965Z,11.40
2023-03-29T19:59:06.922Z,10.80
2023-03-29T20:01:56.853Z,10.30
2023-03-29T20:07:30.473Z,8.90
2023-03-29T20:10:17.292Z,9.90
2023-03-29T20:13:06.281Z,9.30
2023-03-29T20:15:53.471Z,9.20
2023-03-29T20:18:39.807Z,9.40
2023-03-29T20:21:26.277Z,11.20
2023-03-29T20:24:12.609Z,11.10
2023-03-29T20:26:58.840Z,11.60
2023-03-29T20:29:45.921Z,12.10
2023-03-29T20:32:32.478Z,11.20
2023-03-29T20:35:19.177Z,9.60
2023-03-29T20:38:05.895Z,10.20
2023-03-29T20:40:53.552Z,10.10
2023-03-29T20:43:41.292Z,10.30
2023-03-29T20:46:35.068Z,10.10
2023-03-29T20:49:26.281Z,9.30
2023-03-29T20:52:17.710Z,10.10
2023-03-29T20:55:05.689Z,8.70
2023-03-29T20:57:59.513Z,7.90
2023-03-29T21:00:48.598Z,8.90
2023-03-29T21:03:37.622Z,9.40
2023-03-29T21:06:24.598Z,8.70
2023-03-29T21:09:10.848Z,7.40
2023-03-29T21:11:57.491Z,8.40
2023-03-29T21:14:44.933Z,8.40
2023-03-29T21:17:31.334Z,8.00
2023-03-29T21:20:18.720Z,8.70
2023-03-29T21:23:05.188Z,8.40
2023-03-29T21:25:52.004Z,10.30
2023-03-29T21:28:38.236Z,8.40
2023-03-29T21:31:24.848Z,7.60
2023-03-29T21:34:11.060Z,8.60
2023-03-29T21:36:58.317Z,8.40
2023-03-29T21:39:45.026Z,7.70
2023-03-29T21:42:34.966Z,8.40
2023-03-29T21:45:21.950Z,7.60
2023-03-29T21:48:08.684Z,6.70
2023-03-29T21:50:55.428Z,5.60
2023-03-29T21:53:42.282Z,5.00
2023-03-29T21:56:28.943Z,6.50
2023-03-29T21:59:15.453Z,8.60
2023-03-29T22:02:02.203Z,8.20
2023-03-29T22:04:49.076Z,7.90
2023-03-29T22:07:38.785Z,7.60
2023-03-29T22:10:25.810Z,6.60
2023-03-29T22:13:12.488Z,7.70
2023-03-29T22:16:01.091Z,8.00
2023-03-29T22:18:49.164Z,5.50
2023-03-29T22:21:37.318Z,6.90
2023-03-29T22:24:23.962Z,7.10
2023-03-29T22:27:11.748Z,6.80
2023-03-29T22:29:58.758Z,7.90
2023-03-29T22:32:45.597Z,6.80
2023-03-29T22:35:34.842Z,9.20
2023-03-29T22:38:21.429Z,8.00
2023-03-29T22:41:08.645Z,7.50
2023-03-29T22:43:57.720Z,7.30
2023-03-29T22:46:44.513Z,7.10
2023-03-29T22:49:31.627Z,8.00
2023-03-29T22:52:18.330Z,8.50
2023-03-29T22:55:05.435Z,7.00
2023-03-29T22:57:51.746Z,8.70
2023-03-29T23:00:38.259Z,8.90
2023-03-29T23:03:25.402Z,8.70
2023-03-29T23:06:12.021Z,9.30
2023-03-29T23:08:58.877Z,8.30
2023-03-29T23:11:45.624Z,8.90
2023-03-29T23:14:33.793Z,7.70
2023-03-29T23:17:20.512Z,8.70
2023-03-29T23:20:08.769Z,9.70
2023-03-29T23:22:55.257Z,7.10
2023-03-29T23:25:49.710Z,9.40
2023-03-29T23:28:38.209Z,8.00
2023-03-29T23:31:25.585Z,6.90
2023-03-29T23:34:13.661Z,8.10
2023-03-29T23:37:00.383Z,8.30
2023-03-29T23:39:47.090Z,7.70
2023-03-29T23:42:33.692Z,7.90
2023-03-29T23:45:20.401Z,9.80
2023-03-29T23:48:07.638Z,7.60
2023-03-29T23:50:57.096Z,8.70
2023-03-29T23:53:43.246Z,7.50
2023-03-29T23:56:29.775Z,8.50
2023-03-29T23:59:16.932Z,8.10
